Terminal Aerodrome Forecast
Issued by NWS Louisville, KY

Home | Current Version | Previous Version | Text Only | Print | Product List | Glossary On
Versions: 1 2 3 4 5 6 7 8 9 10 11 12 13 14 15 16
000
FTUS43 KLMK 021700
TAFBWG
TAF
KBWG 021720Z 0218/0318 VRB04KT P6SM FEW060 SCT150
     FM030000 VRB03KT P6SM SCT200
     FM031500 18006KT P6SM FEW050 SCT150=

USA.gov is the U.S. government's official web portal to all federal, state and local government web resources and services.